sensor_id;sensor_type;location;lat;lon;timestamp;temperature;humidity
74488;DHT22;63019;51.080;13.642;2023-04-29T00:00:58;10.90;99.90
74488;DHT22;63019;51.080;13.642;2023-04-29T00:02:00;10.90;99.90
74488;DHT22;63019;51.080;13.642;2023-04-29T00:03:02;10.90;99.90
74488;DHT22;63019;51.080;13.642;2023-04-29T00:04:04;10.90;99.90
74488;DHT22;63019;51.080;13.642;2023-04-29T00:05:06;10.90;99.90
74488;DHT22;63019;51.080;13.642;2023-04-29T00:06:08;10.90;99.90
74488;DHT22;63019;51.080;13.642;2023-04-29T00:07:12;10.90;99.90
74488;DHT22;63019;51.080;13.642;2023-04-29T00:08:34;10.90;99.90
74488;DHT22;63019;51.080;13.642;2023-04-29T00:09:35;10.90;99.90
74488;DHT22;63019;51.080;13.642;2023-04-29T00:10:39;10.90;99.90
74488;DHT22;63019;51.080;13.642;2023-04-29T00:11:41;10.90;99.90
74488;DHT22;63019;51.080;13.642;2023-04-29T00:12:43;10.90;99.90
74488;DHT22;63019;51.080;13.642;2023-04-29T00:13:44;10.90;99.90
74488;DHT22;63019;51.080;13.642;2023-04-29T00:14:46;10.90;99.90
74488;DHT22;63019;51.080;13.642;2023-04-29T00:15:48;11.00;99.90
74488;DHT22;63019;51.080;13.642;2023-04-29T00:16:51;11.00;99.90
74488;DHT22;63019;51.080;13.642;2023-04-29T00:17:52;11.00;99.90
74488;DHT22;63019;51.080;13.642;2023-04-29T00:18:54;11.00;99.90
74488;DHT22;63019;51.080;13.642;2023-04-29T00:19:56;11.00;99.90
74488;DHT22;63019;51.080;13.642;2023-04-29T00:20:58;11.00;99.90
74488;DHT22;63019;51.080;13.642;2023-04-29T00:22:00;11.00;99.90
74488;DHT22;63019;51.080;13.642;2023-04-29T00:23:02;11.00;99.90
74488;DHT22;63019;51.080;13.642;2023-04-29T00:24:04;11.00;99.90
74488;DHT22;63019;51.080;13.642;2023-04-29T00:25:06;11.00;99.90
74488;DHT22;63019;51.080;13.642;2023-04-29T00:26:08;11.00;99.90
74488;DHT22;63019;51.080;13.642;2023-04-29T00:27:10;11.00;99.90
74488;DHT22;63019;51.080;13.642;2023-04-29T00:28:12;11.00;99.90
74488;DHT22;63019;51.080;13.642;2023-04-29T00:29:14;11.00;99.90
74488;DHT22;63019;51.080;13.642;2023-04-29T00:30:16;11.00;99.90
74488;DHT22;63019;51.080;13.642;2023-04-29T00:31:18;11.00;99.90
74488;DHT22;63019;51.080;13.642;2023-04-29T00:32:20;11.00;99.90
74488;DHT22;63019;51.080;13.642;2023-04-29T00:33:23;10.90;99.90
74488;DHT22;63019;51.080;13.642;2023-04-29T00:34:25;11.00;99.90
74488;DHT22;63019;51.080;13.642;2023-04-29T00:35:27;11.00;99.90
74488;DHT22;63019;51.080;13.642;2023-04-29T00:36:29;11.00;99.90
74488;DHT22;63019;51.080;13.642;2023-04-29T00:37:32;11.00;99.90
74488;DHT22;63019;51.080;13.642;2023-04-29T00:38:35;11.00;99.90
74488;DHT22;63019;51.080;13.642;2023-04-29T00:39:36;11.00;99.90
74488;DHT22;63019;51.080;13.642;2023-04-29T00:40:38;11.00;99.90
74488;DHT22;63019;51.080;13.642;2023-04-29T00:41:40;11.00;99.90
74488;DHT22;63019;51.080;13.642;2023-04-29T00:42:43;11.00;99.90
74488;DHT22;63019;51.080;13.642;2023-04-29T00:43:44;11.00;99.90
74488;DHT22;63019;51.080;13.642;2023-04-29T00:44:46;11.00;99.90
74488;DHT22;63019;51.080;13.642;2023-04-29T00:45:48;11.00;99.90
74488;DHT22;63019;51.080;13.642;2023-04-29T00:46:51;11.00;99.90
74488;DHT22;63019;51.080;13.642;2023-04-29T00:47:53;11.00;99.90
74488;DHT22;63019;51.080;13.642;2023-04-29T00:48:55;11.00;99.90
74488;DHT22;63019;51.080;13.642;2023-04-29T00:49:57;11.00;99.90
74488;DHT22;63019;51.080;13.642;2023-04-29T00:50:58;11.00;99.90
74488;DHT22;63019;51.080;13.642;2023-04-29T00:52:00;10.90;99.90
74488;DHT22;63019;51.080;13.642;2023-04-29T00:53:03;10.90;99.90
74488;DHT22;63019;51.080;13.642;2023-04-29T00:54:05;11.00;99.90
74488;DHT22;63019;51.080;13.642;2023-04-29T00:55:08;10.90;99.90
74488;DHT22;63019;51.080;13.642;2023-04-29T00:56:13;10.90;99.90
74488;DHT22;63019;51.080;13.642;2023-04-29T00:57:16;10.90;99.90
74488;DHT22;63019;51.080;13.642;2023-04-29T00:58:19;10.90;99.90
74488;DHT22;63019;51.080;13.642;2023-04-29T00:59:22;10.90;99.90
74488;DHT22;63019;51.080;13.642;2023-04-29T01:00:25;10.90;99.90
74488;DHT22;63019;51.080;13.642;2023-04-29T01:01:28;10.90;99.90
74488;DHT22;63019;51.080;13.642;2023-04-29T01:02:30;10.90;99.90
74488;DHT22;63019;51.080;13.642;2023-04-29T01:03:32;10.90;99.90
74488;DHT22;63019;51.080;13.642;2023-04-29T01:04:34;10.90;99.90
74488;DHT22;63019;51.080;13.642;2023-04-29T01:05:36;10.90;99.90
74488;DHT22;63019;51.080;13.642;2023-04-29T01:06:57;10.90;99.90
74488;DHT22;63019;51.080;13.642;2023-04-29T01:08:27;10.90;99.90
74488;DHT22;63019;51.080;13.642;2023-04-29T01:10:43;10.90;99.90
74488;DHT22;63019;51.080;13.642;2023-04-29T01:11:57;10.90;99.90
74488;DHT22;63019;51.080;13.642;2023-04-29T01:13:17;10.90;99.90
74488;DHT22;63019;51.080;13.642;2023-04-29T01:14:24;10.90;99.90
74488;DHT22;63019;51.080;13.642;2023-04-29T01:16:45;10.90;99.90
74488;DHT22;63019;51.080;13.642;2023-04-29T01:19:02;10.90;99.90
74488;DHT22;63019;51.080;13.642;2023-04-29T01:20:08;10.90;99.90
74488;DHT22;63019;51.080;13.642;2023-04-29T01:21:10;10.90;99.90
74488;DHT22;63019;51.080;13.642;2023-04-29T01:22:13;10.90;99.90
74488;DHT22;63019;51.080;13.642;2023-04-29T01:23:15;10.90;99.90
74488;DHT22;63019;51.080;13.642;2023-04-29T01:24:17;10.90;99.90
74488;DHT22;63019;51.080;13.642;2023-04-29T01:25:19;10.90;99.90
74488;DHT22;63019;51.080;13.642;2023-04-29T01:26:22;10.90;99.90
74488;DHT22;63019;51.080;13.642;2023-04-29T01:27:44;10.90;99.90
74488;DHT22;63019;51.080;13.642;2023-04-29T01:30:18;10.80;99.90
74488;DHT22;63019;51.080;13.642;2023-04-29T01:31:37;10.80;99.90
74488;DHT22;63019;51.080;13.642;2023-04-29T01:34:18;10.80;99.90
74488;DHT22;63019;51.080;13.642;2023-04-29T01:36:52;10.80;99.90
74488;DHT22;63019;51.080;13.642;2023-04-29T01:38:06;10.80;99.90
74488;DHT22;63019;51.080;13.642;2023-04-29T01:40:38;10.80;99.90
74488;DHT22;63019;51.080;13.642;2023-04-29T01:42:08;10.80;99.90
74488;DHT22;63019;51.080;13.642;2023-04-29T01:43:07;10.80;99.90
74488;DHT22;63019;51.080;13.642;2023-04-29T01:44:19;10.80;99.90
74488;DHT22;63019;51.080;13.642;2023-04-29T01:45:22;10.80;99.90
74488;DHT22;63019;51.080;13.642;2023-04-29T01:46:25;10.80;99.90
74488;DHT22;63019;51.080;13.642;2023-04-29T01:47:28;10.80;99.90
74488;DHT22;63019;51.080;13.642;2023-04-29T01:48:31;10.80;99.90
74488;DHT22;63019;51.080;13.642;2023-04-29T01:49:35;10.80;99.90
74488;DHT22;63019;51.080;13.642;2023-04-29T01:50:37;10.80;99.90
74488;DHT22;63019;51.080;13.642;2023-04-29T01:51:39;10.80;99.90
74488;DHT22;63019;51.080;13.642;2023-04-29T01:52:41;10.80;99.90
74488;DHT22;63019;51.080;13.642;2023-04-29T01:53:43;10.80;99.90
74488;DHT22;63019;51.080;13.642;2023-04-29T01:54:45;10.80;99.90
74488;DHT22;63019;51.080;13.642;2023-04-29T01:55:47;10.80;99.90
74488;DHT22;63019;51.080;13.642;2023-04-29T01:56:49;10.80;99.90
74488;DHT22;63019;51.080;13.642;2023-04-29T01:57:52;10.80;99.90
74488;DHT22;63019;51.080;13.642;2023-04-29T01:58:54;10.80;99.90
74488;DHT22;63019;51.080;13.642;2023-04-29T01:59:56;10.80;99.90
74488;DHT22;63019;51.080;13.642;2023-04-29T02:00:58;10.80;99.90
74488;DHT22;63019;51.080;13.642;2023-04-29T02:02:00;10.80;99.90
74488;DHT22;63019;51.080;13.642;2023-04-29T02:03:01;10.80;99.90
74488;DHT22;63019;51.080;13.642;2023-04-29T02:04:04;10.90;99.90
74488;DHT22;63019;51.080;13.642;2023-04-29T02:05:06;10.90;99.90
74488;DHT22;63019;51.080;13.642;2023-04-29T02:06:08;10.90;99.90
74488;DHT22;63019;51.080;13.642;2023-04-29T02:07:10;10.90;99.90
74488;DHT22;63019;51.080;13.642;2023-04-29T02:08:11;10.90;99.90
74488;DHT22;63019;51.080;13.642;2023-04-29T02:09:13;10.90;99.90
74488;DHT22;63019;51.080;13.642;2023-04-29T02:10:15;10.90;99.90
74488;DHT22;63019;51.080;13.642;2023-04-29T02:11:17;10.90;99.90
74488;DHT22;63019;51.080;13.642;2023-04-29T02:12:19;10.90;99.90
74488;DHT22;63019;51.080;13.642;2023-04-29T02:13:21;10.90;99.90
74488;DHT22;63019;51.080;13.642;2023-04-29T02:14:23;11.00;99.90
74488;DHT22;63019;51.080;13.642;2023-04-29T02:15:28;11.00;99.90
74488;DHT22;63019;51.080;13.642;2023-04-29T02:16:30;11.10;99.90
74488;DHT22;63019;51.080;13.642;2023-04-29T02:17:33;11.10;99.90
74488;DHT22;63019;51.080;13.642;2023-04-29T02:18:35;11.20;99.90
74488;DHT22;63019;51.080;13.642;2023-04-29T02:19:37;11.20;99.90
74488;DHT22;63019;51.080;13.642;2023-04-29T02:20:38;11.30;99.90
74488;DHT22;63019;51.080;13.642;2023-04-29T02:21:40;11.30;99.90
74488;DHT22;63019;51.080;13.642;2023-04-29T02:22:42;11.40;99.90
74488;DHT22;63019;51.080;13.642;2023-04-29T02:23:44;11.50;99.90
74488;DHT22;63019;51.080;13.642;2023-04-29T02:24:46;11.50;99.90
74488;DHT22;63019;51.080;13.642;2023-04-29T02:25:48;11.60;99.90
74488;DHT22;63019;51.080;13.642;2023-04-29T02:26:50;11.70;99.90
74488;DHT22;63019;51.080;13.642;2023-04-29T02:27:51;11.70;99.90
74488;DHT22;63019;51.080;13.642;2023-04-29T02:28:53;11.70;99.90
74488;DHT22;63019;51.080;13.642;2023-04-29T02:29:57;11.70;99.90
74488;DHT22;63019;51.080;13.642;2023-04-29T02:30:59;11.70;99.90
74488;DHT22;63019;51.080;13.642;2023-04-29T02:32:01;11.70;99.90
74488;DHT22;63019;51.080;13.642;2023-04-29T02:33:03;11.70;99.90
74488;DHT22;63019;51.080;13.642;2023-04-29T02:34:08;11.70;99.90
74488;DHT22;63019;51.080;13.642;2023-04-29T02:35:10;11.70;99.90
74488;DHT22;63019;51.080;13.642;2023-04-29T02:36:13;11.60;99.90
74488;DHT22;63019;51.080;13.642;2023-04-29T02:37:14;11.60;99.90
74488;DHT22;63019;51.080;13.642;2023-04-29T02:38:16;11.50;99.90
74488;DHT22;63019;51.080;13.642;2023-04-29T02:39:18;11.50;99.90
74488;DHT22;63019;51.080;13.642;2023-04-29T02:40:21;11.50;99.90
74488;DHT22;63019;51.080;13.642;2023-04-29T02:41:22;11.40;99.90
74488;DHT22;63019;51.080;13.642;2023-04-29T02:42:26;11.40;99.90
74488;DHT22;63019;51.080;13.642;2023-04-29T02:43:27;11.30;99.90
74488;DHT22;63019;51.080;13.642;2023-04-29T02:44:31;11.30;99.90
74488;DHT22;63019;51.080;13.642;2023-04-29T02:45:33;11.30;99.90
74488;DHT22;63019;51.080;13.642;2023-04-29T02:46:35;11.30;99.90
74488;DHT22;63019;51.080;13.642;2023-04-29T02:47:38;11.30;99.90
74488;DHT22;63019;51.080;13.642;2023-04-29T02:48:39;11.30;99.90
74488;DHT22;63019;51.080;13.642;2023-04-29T02:49:41;11.30;99.90
74488;DHT22;63019;51.080;13.642;2023-04-29T02:50:43;11.30;99.90
74488;DHT22;63019;51.080;13.642;2023-04-29T02:51:45;11.30;99.90
74488;DHT22;63019;51.080;13.642;2023-04-29T02:52:47;11.30;99.90
74488;DHT22;63019;51.080;13.642;2023-04-29T02:53:49;11.30;99.90
74488;DHT22;63019;51.080;13.642;2023-04-29T02:54:50;11.30;99.90
74488;DHT22;63019;51.080;13.642;2023-04-29T02:55:52;11.30;99.90
74488;DHT22;63019;51.080;13.642;2023-04-29T02:56:54;11.20;99.90
74488;DHT22;63019;51.080;13.642;2023-04-29T02:57:56;11.20;99.90
74488;DHT22;63019;51.080;13.642;2023-04-29T02:58:57;11.20;99.90
74488;DHT22;63019;51.080;13.642;2023-04-29T02:59:59;11.20;99.90
74488;DHT22;63019;51.080;13.642;2023-04-29T03:01:01;11.20;99.90
74488;DHT22;63019;51.080;13.642;2023-04-29T03:02:03;11.20;99.90
74488;DHT22;63019;51.080;13.642;2023-04-29T03:03:05;11.20;99.90
74488;DHT22;63019;51.080;13.642;2023-04-29T03:04:07;11.30;99.90
74488;DHT22;63019;51.080;13.642;2023-04-29T03:05:09;11.30;99.90
74488;DHT22;63019;51.080;13.642;2023-04-29T03:06:12;11.30;99.90
74488;DHT22;63019;51.080;13.642;2023-04-29T03:07:13;11.30;99.90
74488;DHT22;63019;51.080;13.642;2023-04-29T03:08:18;11.30;99.90
74488;DHT22;63019;51.080;13.642;2023-04-29T03:09:19;11.30;99.90
74488;DHT22;63019;51.080;13.642;2023-04-29T03:10:22;11.20;99.90
74488;DHT22;63019;51.080;13.642;2023-04-29T03:11:24;11.30;99.90
74488;DHT22;63019;51.080;13.642;2023-04-29T03:12:26;11.30;99.90
74488;DHT22;63019;51.080;13.642;2023-04-29T03:13:28;11.30;99.90
74488;DHT22;63019;51.080;13.642;2023-04-29T03:14:30;11.30;99.90
74488;DHT22;63019;51.080;13.642;2023-04-29T03:15:31;11.30;99.90
74488;DHT22;63019;51.080;13.642;2023-04-29T03:16:33;11.30;99.90
74488;DHT22;63019;51.080;13.642;2023-04-29T03:17:35;11.30;99.90
74488;DHT22;63019;51.080;13.642;2023-04-29T03:18:37;11.30;99.90
74488;DHT22;63019;51.080;13.642;2023-04-29T03:19:39;11.30;99.90
74488;DHT22;63019;51.080;13.642;2023-04-29T03:20:41;11.30;99.90
74488;DHT22;63019;51.080;13.642;2023-04-29T03:21:43;11.30;99.90
74488;DHT22;63019;51.080;13.642;2023-04-29T03:22:45;11.30;99.90
74488;DHT22;63019;51.080;13.642;2023-04-29T03:23:47;11.30;99.90
74488;DHT22;63019;51.080;13.642;2023-04-29T03:24:50;11.20;99.90
74488;DHT22;63019;51.080;13.642;2023-04-29T03:25:51;11.20;99.90
74488;DHT22;63019;51.080;13.642;2023-04-29T03:26:53;11.20;99.90
74488;DHT22;63019;51.080;13.642;2023-04-29T03:27:55;11.20;99.90
74488;DHT22;63019;51.080;13.642;2023-04-29T03:28:57;11.20;99.90
74488;DHT22;63019;51.080;13.642;2023-04-29T03:29:59;11.30;99.90
74488;DHT22;63019;51.080;13.642;2023-04-29T03:31:01;11.20;99.90
74488;DHT22;63019;51.080;13.642;2023-04-29T03:32:03;11.20;99.90
74488;DHT22;63019;51.080;13.642;2023-04-29T03:33:05;11.20;99.90
74488;DHT22;63019;51.080;13.642;2023-04-29T03:34:07;11.20;99.90
74488;DHT22;63019;51.080;13.642;2023-04-29T03:35:09;11.20;99.90
74488;DHT22;63019;51.080;13.642;2023-04-29T03:36:16;11.20;99.90
74488;DHT22;63019;51.080;13.642;2023-04-29T03:37:17;11.20;99.90
74488;DHT22;63019;51.080;13.642;2023-04-29T03:38:19;11.20;99.90
74488;DHT22;63019;51.080;13.642;2023-04-29T03:39:21;11.20;99.90
74488;DHT22;63019;51.080;13.642;2023-04-29T03:40:23;11.20;99.90
74488;DHT22;63019;51.080;13.642;2023-04-29T03:41:24;11.20;99.90
74488;DHT22;63019;51.080;13.642;2023-04-29T03:42:26;11.20;99.90
74488;DHT22;63019;51.080;13.642;2023-04-29T03:43:28;11.20;99.90
74488;DHT22;63019;51.080;13.642;2023-04-29T03:44:30;11.20;99.90
74488;DHT22;63019;51.080;13.642;2023-04-29T03:45:32;11.20;99.90
74488;DHT22;63019;51.080;13.642;2023-04-29T03:46:33;11.20;99.90
74488;DHT22;63019;51.080;13.642;2023-04-29T03:47:35;11.20;99.90
74488;DHT22;63019;51.080;13.642;2023-04-29T03:48:37;11.20;99.90
74488;DHT22;63019;51.080;13.642;2023-04-29T03:49:39;11.10;99.90
74488;DHT22;63019;51.080;13.642;2023-04-29T03:50:41;11.10;99.90
74488;DHT22;63019;51.080;13.642;2023-04-29T03:51:43;11.10;99.90
74488;DHT22;63019;51.080;13.642;2023-04-29T03:52:48;11.10;99.90
74488;DHT22;63019;51.080;13.642;2023-04-29T03:53:52;11.10;99.90
74488;DHT22;63019;51.080;13.642;2023-04-29T03:54:54;11.00;99.90
74488;DHT22;63019;51.080;13.642;2023-04-29T03:55:56;11.00;99.90
74488;DHT22;63019;51.080;13.642;2023-04-29T03:56:58;10.90;99.90
74488;DHT22;63019;51.080;13.642;2023-04-29T03:58:00;11.00;99.90
74488;DHT22;63019;51.080;13.642;2023-04-29T03:59:02;11.00;99.90
74488;DHT22;63019;51.080;13.642;2023-04-29T04:00:05;11.00;99.90
74488;DHT22;63019;51.080;13.642;2023-04-29T04:01:07;11.00;99.90
74488;DHT22;63019;51.080;13.642;2023-04-29T04:02:08;11.00;99.90
74488;DHT22;63019;51.080;13.642;2023-04-29T04:03:10;11.00;99.90
74488;DHT22;63019;51.080;13.642;2023-04-29T04:04:12;11.00;99.90
74488;DHT22;63019;51.080;13.642;2023-04-29T04:05:15;11.00;99.90
74488;DHT22;63019;51.080;13.642;2023-04-29T04:06:17;11.00;99.90
74488;DHT22;63019;51.080;13.642;2023-04-29T04:07:19;11.00;99.90
74488;DHT22;63019;51.080;13.642;2023-04-29T04:08:20;11.10;99.90
74488;DHT22;63019;51.080;13.642;2023-04-29T04:09:22;11.10;99.90
74488;DHT22;63019;51.080;13.642;2023-04-29T04:10:24;11.10;99.90
74488;DHT22;63019;51.080;13.642;2023-04-29T04:11:26;11.10;99.90
74488;DHT22;63019;51.080;13.642;2023-04-29T04:12:27;11.10;99.90
74488;DHT22;63019;51.080;13.642;2023-04-29T04:13:29;11.10;99.90
74488;DHT22;63019;51.080;13.642;2023-04-29T04:14:31;11.20;99.90
74488;DHT22;63019;51.080;13.642;2023-04-29T04:15:33;11.20;99.90
74488;DHT22;63019;51.080;13.642;2023-04-29T04:16:35;11.20;99.90
74488;DHT22;63019;51.080;13.642;2023-04-29T04:17:37;11.20;99.90
74488;DHT22;63019;51.080;13.642;2023-04-29T04:18:38;11.20;99.90
74488;DHT22;63019;51.080;13.642;2023-04-29T04:19:40;11.20;99.90
74488;DHT22;63019;51.080;13.642;2023-04-29T04:20:42;11.20;99.90
74488;DHT22;63019;51.080;13.642;2023-04-29T04:21:44;11.20;99.90
74488;DHT22;63019;51.080;13.642;2023-04-29T04:22:46;11.20;99.90
74488;DHT22;63019;51.080;13.642;2023-04-29T04:23:47;11.20;99.90
74488;DHT22;63019;51.080;13.642;2023-04-29T04:24:49;11.20;99.90
74488;DHT22;63019;51.080;13.642;2023-04-29T04:25:51;11.20;99.90
74488;DHT22;63019;51.080;13.642;2023-04-29T04:26:54;11.30;99.90
74488;DHT22;63019;51.080;13.642;2023-04-29T04:27:56;11.30;99.90
74488;DHT22;63019;51.080;13.642;2023-04-29T04:28:58;11.40;99.90
74488;DHT22;63019;51.080;13.642;2023-04-29T04:29:59;11.40;99.90
74488;DHT22;63019;51.080;13.642;2023-04-29T04:31:01;11.40;99.90
74488;DHT22;63019;51.080;13.642;2023-04-29T04:32:04;11.40;99.90
74488;DHT22;63019;51.080;13.642;2023-04-29T04:33:06;11.50;99.90
74488;DHT22;63019;51.080;13.642;2023-04-29T04:34:08;11.50;99.90
74488;DHT22;63019;51.080;13.642;2023-04-29T04:35:09;11.50;99.90
74488;DHT22;63019;51.080;13.642;2023-04-29T04:36:11;11.50;99.90
74488;DHT22;63019;51.080;13.642;2023-04-29T04:37:13;11.50;99.90
74488;DHT22;63019;51.080;13.642;2023-04-29T04:38:15;11.50;99.90
74488;DHT22;63019;51.080;13.642;2023-04-29T04:39:17;11.50;99.90
74488;DHT22;63019;51.080;13.642;2023-04-29T04:40:19;11.50;99.90
74488;DHT22;63019;51.080;13.642;2023-04-29T04:41:21;11.50;99.90
74488;DHT22;63019;51.080;13.642;2023-04-29T04:42:23;11.50;99.90
74488;DHT22;63019;51.080;13.642;2023-04-29T04:43:25;11.50;99.90
74488;DHT22;63019;51.080;13.642;2023-04-29T04:44:27;11.50;99.90
74488;DHT22;63019;51.080;13.642;2023-04-29T04:45:29;11.60;99.90
74488;DHT22;63019;51.080;13.642;2023-04-29T04:46:31;11.60;99.90
74488;DHT22;63019;51.080;13.642;2023-04-29T04:47:33;11.60;99.90
74488;DHT22;63019;51.080;13.642;2023-04-29T04:48:35;11.50;99.90
74488;DHT22;63019;51.080;13.642;2023-04-29T04:49:37;11.50;99.90
74488;DHT22;63019;51.080;13.642;2023-04-29T04:50:39;11.50;99.90
74488;DHT22;63019;51.080;13.642;2023-04-29T04:51:43;11.50;99.90
74488;DHT22;63019;51.080;13.642;2023-04-29T04:52:45;11.50;99.90
74488;DHT22;63019;51.080;13.642;2023-04-29T04:53:47;11.50;99.90
74488;DHT22;63019;51.080;13.642;2023-04-29T04:54:49;11.50;99.90
74488;DHT22;63019;51.080;13.642;2023-04-29T04:55:51;11.50;99.90
74488;DHT22;63019;51.080;13.642;2023-04-29T04:56:53;11.50;99.90
74488;DHT22;63019;51.080;13.642;2023-04-29T04:57:54;11.50;99.90
74488;DHT22;63019;51.080;13.642;2023-04-29T04:58:56;11.50;99.90
74488;DHT22;63019;51.080;13.642;2023-04-29T04:59:58;11.50;99.90
74488;DHT22;63019;51.080;13.642;2023-04-29T05:01:00;11.60;99.90
74488;DHT22;63019;51.080;13.642;2023-04-29T05:02:02;11.60;99.90
74488;DHT22;63019;51.080;13.642;2023-04-29T05:03:04;11.60;99.90
74488;DHT22;63019;51.080;13.642;2023-04-29T05:04:06;11.50;99.90
74488;DHT22;63019;51.080;13.642;2023-04-29T05:05:08;11.60;99.90
74488;DHT22;63019;51.080;13.642;2023-04-29T05:06:10;11.60;99.90
74488;DHT22;63019;51.080;13.642;2023-04-29T05:07:11;11.60;99.90
74488;DHT22;63019;51.080;13.642;2023-04-29T05:08:13;11.60;99.90
74488;DHT22;63019;51.080;13.642;2023-04-29T05:09:15;11.70;99.90
74488;DHT22;63019;51.080;13.642;2023-04-29T05:10:17;11.70;99.90
74488;DHT22;63019;51.080;13.642;2023-04-29T05:11:20;11.70;99.90
74488;DHT22;63019;51.080;13.642;2023-04-29T05:12:22;11.70;99.90
74488;DHT22;63019;51.080;13.642;2023-04-29T05:13:25;11.70;99.90
74488;DHT22;63019;51.080;13.642;2023-04-29T05:14:28;11.80;99.90
74488;DHT22;63019;51.080;13.642;2023-04-29T05:15:29;11.80;99.90
74488;DHT22;63019;51.080;13.642;2023-04-29T05:16:31;11.80;99.90
74488;DHT22;63019;51.080;13.642;2023-04-29T05:17:33;11.90;99.90
74488;DHT22;63019;51.080;13.642;2023-04-29T05:18:37;11.90;99.90
74488;DHT22;63019;51.080;13.642;2023-04-29T05:19:39;11.90;99.90
74488;DHT22;63019;51.080;13.642;2023-04-29T05:20:40;11.90;99.90
74488;DHT22;63019;51.080;13.642;2023-04-29T05:21:42;11.90;99.90
74488;DHT22;63019;51.080;13.642;2023-04-29T05:22:44;11.90;99.90
74488;DHT22;63019;51.080;13.642;2023-04-29T05:23:46;11.90;99.90
74488;DHT22;63019;51.080;13.642;2023-04-29T05:24:48;11.90;99.90
74488;DHT22;63019;51.080;13.642;2023-04-29T05:25:50;12.00;99.90
74488;DHT22;63019;51.080;13.642;2023-04-29T05:26:52;12.00;99.90
74488;DHT22;63019;51.080;13.642;2023-04-29T05:27:54;12.00;99.90
74488;DHT22;63019;51.080;13.642;2023-04-29T05:28:56;12.00;99.90
74488;DHT22;63019;51.080;13.642;2023-04-29T05:29:58;12.10;99.90
74488;DHT22;63019;51.080;13.642;2023-04-29T05:30:59;12.10;99.90
74488;DHT22;63019;51.080;13.642;2023-04-29T05:32:01;12.20;99.90
74488;DHT22;63019;51.080;13.642;2023-04-29T05:33:03;12.20;99.90
74488;DHT22;63019;51.080;13.642;2023-04-29T05:34:05;12.20;99.90
74488;DHT22;63019;51.080;13.642;2023-04-29T05:35:07;12.20;99.90
74488;DHT22;63019;51.080;13.642;2023-04-29T05:36:10;12.20;99.90
74488;DHT22;63019;51.080;13.642;2023-04-29T05:37:11;12.30;99.90
74488;DHT22;63019;51.080;13.642;2023-04-29T05:38:14;12.30;99.90
74488;DHT22;63019;51.080;13.642;2023-04-29T05:39:15;12.30;99.90
74488;DHT22;63019;51.080;13.642;2023-04-29T05:40:18;12.30;99.90
74488;DHT22;63019;51.080;13.642;2023-04-29T05:41:20;12.30;99.90
74488;DHT22;63019;51.080;13.642;2023-04-29T05:42:22;12.30;99.90
74488;DHT22;63019;51.080;13.642;2023-04-29T05:43:24;12.30;99.90
74488;DHT22;63019;51.080;13.642;2023-04-29T05:44:26;12.30;99.90
74488;DHT22;63019;51.080;13.642;2023-04-29T05:45:27;12.30;99.90
74488;DHT22;63019;51.080;13.642;2023-04-29T05:46:29;12.30;99.90
74488;DHT22;63019;51.080;13.642;2023-04-29T05:47:31;12.40;99.90
74488;DHT22;63019;51.080;13.642;2023-04-29T05:48:33;12.40;99.90
74488;DHT22;63019;51.080;13.642;2023-04-29T05:49:35;12.40;99.90
74488;DHT22;63019;51.080;13.642;2023-04-29T05:50:37;12.40;99.90
74488;DHT22;63019;51.080;13.642;2023-04-29T05:51:38;12.40;99.90
74488;DHT22;63019;51.080;13.642;2023-04-29T05:52:40;12.50;99.90
74488;DHT22;63019;51.080;13.642;2023-04-29T05:53:42;12.50;99.90
74488;DHT22;63019;51.080;13.642;2023-04-29T05:54:44;12.50;99.90
74488;DHT22;63019;51.080;13.642;2023-04-29T05:55:45;12.50;99.90
74488;DHT22;63019;51.080;13.642;2023-04-29T05:56:50;12.50;99.90
74488;DHT22;63019;51.080;13.642;2023-04-29T05:57:52;12.60;99.90
74488;DHT22;63019;51.080;13.642;2023-04-29T05:58:54;12.60;99.90
74488;DHT22;63019;51.080;13.642;2023-04-29T05:59:55;12.60;99.90
74488;DHT22;63019;51.080;13.642;2023-04-29T06:00:58;12.60;99.90
74488;DHT22;63019;51.080;13.642;2023-04-29T06:02:00;12.60;99.90
74488;DHT22;63019;51.080;13.642;2023-04-29T06:03:02;12.60;99.90
74488;DHT22;63019;51.080;13.642;2023-04-29T06:04:04;12.70;99.90
74488;DHT22;63019;51.080;13.642;2023-04-29T06:05:07;12.70;99.90
74488;DHT22;63019;51.080;13.642;2023-04-29T06:06:09;12.80;99.90
74488;DHT22;63019;51.080;13.642;2023-04-29T06:07:12;12.80;99.90
74488;DHT22;63019;51.080;13.642;2023-04-29T06:08:14;12.80;99.90
74488;DHT22;63019;51.080;13.642;2023-04-29T06:09:16;12.80;99.90
74488;DHT22;63019;51.080;13.642;2023-04-29T06:10:28;12.80;99.90
74488;DHT22;63019;51.080;13.642;2023-04-29T06:11:30;12.80;99.90
74488;DHT22;63019;51.080;13.642;2023-04-29T06:12:32;12.80;99.90
74488;DHT22;63019;51.080;13.642;2023-04-29T06:13:33;12.80;99.90
74488;DHT22;63019;51.080;13.642;2023-04-29T06:14:35;12.80;99.90
74488;DHT22;63019;51.080;13.642;2023-04-29T06:15:37;12.90;99.90
74488;DHT22;63019;51.080;13.642;2023-04-29T06:16:39;12.90;99.90
74488;DHT22;63019;51.080;13.642;2023-04-29T06:17:41;12.90;99.90
74488;DHT22;63019;51.080;13.642;2023-04-29T06:18:43;12.90;99.90
74488;DHT22;63019;51.080;13.642;2023-04-29T06:19:45;13.00;99.90
74488;DHT22;63019;51.080;13.642;2023-04-29T06:20:47;13.00;99.90
74488;DHT22;63019;51.080;13.642;2023-04-29T06:21:48;13.00;99.90
74488;DHT22;63019;51.080;13.642;2023-04-29T06:22:50;13.00;99.90
74488;DHT22;63019;51.080;13.642;2023-04-29T06:23:53;13.00;99.90
74488;DHT22;63019;51.080;13.642;2023-04-29T06:24:55;13.00;99.90
74488;DHT22;63019;51.080;13.642;2023-04-29T06:25:56;13.00;99.90
74488;DHT22;63019;51.080;13.642;2023-04-29T06:26:58;13.00;99.90
74488;DHT22;63019;51.080;13.642;2023-04-29T06:28:00;13.00;99.90
74488;DHT22;63019;51.080;13.642;2023-04-29T06:29:02;13.10;99.90
74488;DHT22;63019;51.080;13.642;2023-04-29T06:30:05;13.10;99.90
74488;DHT22;63019;51.080;13.642;2023-04-29T06:31:07;13.10;99.90
74488;DHT22;63019;51.080;13.642;2023-04-29T06:32:09;13.10;99.90
74488;DHT22;63019;51.080;13.642;2023-04-29T06:33:11;13.10;99.90
74488;DHT22;63019;51.080;13.642;2023-04-29T06:34:14;13.10;99.90
74488;DHT22;63019;51.080;13.642;2023-04-29T06:35:16;13.10;99.90
74488;DHT22;63019;51.080;13.642;2023-04-29T06:36:18;13.10;99.90
74488;DHT22;63019;51.080;13.642;2023-04-29T06:37:19;13.10;99.90
74488;DHT22;63019;51.080;13.642;2023-04-29T06:38:21;13.10;99.90
74488;DHT22;63019;51.080;13.642;2023-04-29T06:39:23;13.10;99.90